createdAt,value
2019-04-16T00:01:23.713Z,100234.24
2019-04-16T00:03:55.712Z,100238.64
2019-04-16T00:06:39.655Z,100233.87
2019-04-16T00:09:14.645Z,100236.66
2019-04-16T00:11:49.415Z,100236.13
2019-04-16T00:14:21.389Z,100240.94
2019-04-16T00:16:51.874Z,100252.73
2019-04-16T00:19:22.287Z,100244.86
2019-04-16T00:22:12.594Z,100242.88
2019-04-16T00:24:45.531Z,100234.46
2019-04-16T00:27:16.095Z,100237.41
2019-04-16T00:29:46.453Z,100241.22
2019-04-16T00:32:18.540Z,100241.81
2019-04-16T00:34:48.979Z,100246.23
2019-04-16T00:37:21.294Z,100240.05
2019-04-16T00:39:55.565Z,100243.78
2019-04-16T00:42:23.745Z,100245.14
2019-04-16T00:44:54.148Z,100244.54
2019-04-16T00:47:24.616Z,100248.95
2019-04-16T00:49:57.726Z,100246.23
2019-04-16T00:52:27.349Z,100248.34
2019-04-16T00:54:57.759Z,100252.22
2019-04-16T00:57:28.231Z,100252.54
2019-04-16T00:59:58.589Z,100253.95
2019-04-16T01:02:29.061Z,100252.41
2019-04-16T01:04:59.511Z,100252.41
2019-04-16T01:07:30.081Z,100262.92
2019-04-16T01:10:00.668Z,100269.42
2019-04-16T01:12:31.185Z,100272.20
2019-04-16T01:15:01.570Z,100277.91
2019-04-16T01:17:33.365Z,100284.10
2019-04-16T01:20:11.817Z,100286.11
2019-04-16T01:22:40.294Z,100290.14
2019-04-16T01:25:11.649Z,100286.50
2019-04-16T01:27:43.761Z,100287.14
2019-04-16T01:30:15.813Z,100285.79
2019-04-16T01:32:57.127Z,100284.79
2019-04-16T01:35:29.154Z,100282.90
2019-04-16T01:38:16.305Z,100277.47
2019-04-16T01:40:51.021Z,100278.83
2019-04-16T01:43:25.485Z,100284.82
2019-04-16T01:45:53.625Z,100290.08
2019-04-16T01:48:24.155Z,100290.62
2019-04-16T01:50:54.580Z,100293.33
2019-04-16T01:53:25.182Z,100289.04
2019-04-16T01:55:56.992Z,100291.80
2019-04-16T01:58:27.815Z,100294.30
2019-04-16T02:00:58.562Z,100295.77
2019-04-16T02:03:29.166Z,100297.84
2019-04-16T02:05:59.617Z,100296.30
2019-04-16T02:08:31.148Z,100306.81
2019-04-16T02:11:02.318Z,100309.45
2019-04-16T02:13:32.871Z,100318.74
2019-04-16T02:16:03.318Z,100318.24
2019-04-16T02:18:33.787Z,100321.36
2019-04-16T02:21:04.215Z,100320.11
2019-04-16T02:23:34.841Z,100325.11
2019-04-16T02:26:06.289Z,100319.67
2019-04-16T02:28:36.821Z,100319.88
2019-04-16T02:31:13.459Z,100314.02
2019-04-16T02:33:39.458Z,100319.13
2019-04-16T02:36:09.911Z,100327.42
2019-04-16T02:38:46.268Z,100323.34
2019-04-16T02:41:12.517Z,100331.58
2019-04-16T02:43:43.020Z,100328.86
2019-04-16T02:46:13.610Z,100335.97
2019-04-16T02:48:49.995Z,100332.11
2019-04-16T02:51:39.926Z,100334.94
2019-04-16T02:54:09.835Z,100339.12
2019-04-16T02:56:41.821Z,100340.26
2019-04-16T02:59:19.559Z,100341.40
2019-04-16T03:02:06.699Z,100343.05
2019-04-16T03:04:58.334Z,100344.55
2019-04-16T03:07:28.995Z,100343.08
2019-04-16T03:10:01.452Z,100349.05
2019-04-16T03:12:31.529Z,100354.83
2019-04-16T03:15:02.783Z,100354.48
2019-04-16T03:17:34.860Z,100363.34
2019-04-16T03:20:08.790Z,100362.52
2019-04-16T03:22:39.169Z,100364.20
2019-04-16T03:25:13.575Z,100376.20
2019-04-16T03:27:43.493Z,100370.91
2019-04-16T03:30:14.142Z,100378.45
2019-04-16T03:32:51.205Z,100386.89
2019-04-16T03:35:25.163Z,100386.24
2019-04-16T03:37:53.813Z,100394.62
2019-04-16T03:40:25.759Z,100395.69
2019-04-16T03:42:59.266Z,100404.23
2019-04-16T03:45:28.625Z,100400.16
2019-04-16T03:47:59.054Z,100409.55
2019-04-16T03:50:31.302Z,100415.48
2019-04-16T03:53:01.657Z,100420.00
2019-04-16T03:55:32.135Z,100425.41
2019-04-16T03:58:05.669Z,100429.38
2019-04-16T04:00:34.754Z,100431.48
2019-04-16T04:03:05.186Z,100437.45
2019-04-16T04:05:35.789Z,100441.72
2019-04-16T04:08:06.267Z,100439.41
2019-04-16T04:10:37.765Z,100443.50
2019-04-16T04:13:08.349Z,100450.20
2019-04-16T04:15:38.833Z,100443.92
2019-04-16T04:18:11.651Z,100441.39
2019-04-16T04:20:41.883Z,100455.92
2019-04-16T04:23:12.616Z,100459.05
2019-04-16T04:25:43.207Z,100456.24
2019-04-16T04:28:18.508Z,100461.55
2019-04-16T04:30:48.756Z,100458.00
2019-04-16T04:33:41.912Z,100463.02
2019-04-16T04:36:11.152Z,100459.98
2019-04-16T04:38:43.069Z,100466.27
2019-04-16T04:41:13.549Z,100469.50
2019-04-16T04:43:44.003Z,100460.11
2019-04-16T04:46:15.611Z,100459.25
2019-04-16T04:48:46.315Z,100460.92
2019-04-16T04:51:16.778Z,100464.47
2019-04-16T04:53:49.948Z,100465.41
2019-04-16T04:56:20.085Z,100468.42
2019-04-16T04:58:50.975Z,100471.33
2019-04-16T05:01:21.463Z,100472.38
2019-04-16T05:03:53.460Z,100471.13
2019-04-16T05:06:40.452Z,100471.78
2019-04-16T05:09:10.972Z,100473.63
2019-04-16T05:11:41.426Z,100475.41
2019-04-16T05:14:11.862Z,100478.79
2019-04-16T05:16:42.321Z,100480.42
2019-04-16T05:19:14.813Z,100483.58
2019-04-16T05:21:49.639Z,100480.56
2019-04-16T05:24:17.006Z,100482.86
2019-04-16T05:26:47.462Z,100482.82
2019-04-16T05:29:18.692Z,100488.23
2019-04-16T05:31:49.367Z,100484.66
2019-04-16T05:34:19.807Z,100477.76
2019-04-16T05:36:50.294Z,100484.84
2019-04-16T05:39:20.732Z,100473.26
2019-04-16T05:41:52.956Z,100481.09
2019-04-16T05:44:23.327Z,100475.77
2019-04-16T05:46:53.841Z,100476.73
2019-04-16T05:49:25.650Z,100484.34
2019-04-16T05:51:56.586Z,100486.84
2019-04-16T05:54:37.670Z,100493.11
2019-04-16T05:57:18.882Z,100497.06
2019-04-16T05:59:49.303Z,100492.96
2019-04-16T06:02:24.319Z,100498.57
2019-04-16T06:04:55.981Z,100489.03
2019-04-16T06:07:27.104Z,100489.90
2019-04-16T06:09:57.488Z,100490.00
2019-04-16T06:12:32.473Z,100496.38
2019-04-16T06:15:07.520Z,100497.80
2019-04-16T06:17:52.470Z,100498.73
2019-04-16T06:20:24.468Z,100500.23
2019-04-16T06:23:00.896Z,100502.52
2019-04-16T06:25:41.020Z,100499.88
2019-04-16T06:28:22.986Z,100501.73
2019-04-16T06:30:58.662Z,100502.81
2019-04-16T06:33:39.627Z,100505.70
2019-04-16T06:36:11.733Z,100515.44
2019-04-16T06:38:46.632Z,100509.64
2019-04-16T06:41:41.874Z,100515.33
2019-04-16T06:44:08.826Z,100524.30
2019-04-16T06:46:43.918Z,100518.09
2019-04-16T06:49:21.935Z,100513.29
2019-04-16T06:51:59.956Z,100520.20
2019-04-16T06:54:33.077Z,100528.50
2019-04-16T06:57:26.701Z,100529.28
2019-04-16T07:00:14.855Z,100530.36
2019-04-16T07:03:01.718Z,100525.71
2019-04-16T07:05:23.692Z,100530.14
2019-04-16T07:08:04.885Z,100526.78
2019-04-16T07:10:44.443Z,100525.91
2019-04-16T07:13:11.205Z,100531.47
2019-04-16T07:15:41.348Z,100534.19
2019-04-16T07:18:11.790Z,100531.90
2019-04-16T07:20:45.734Z,100537.91
2019-04-16T07:23:14.747Z,100534.33
2019-04-16T07:25:45.716Z,100533.26
2019-04-16T07:28:38.960Z,100529.17
2019-04-16T07:31:25.921Z,100530.70
2019-04-16T07:33:51.103Z,100533.50
2019-04-16T07:36:35.718Z,100532.44
2019-04-16T07:39:28.251Z,100538.69
2019-04-16T07:42:11.353Z,100540.12
2019-04-16T07:44:51.316Z,100547.07
2019-04-16T07:47:35.919Z,100543.78
2019-04-16T07:50:14.992Z,100546.00
2019-04-16T07:52:47.070Z,100531.72
2019-04-16T07:55:33.236Z,100532.24
2019-04-16T07:58:05.058Z,100533.42
2019-04-16T08:00:40.369Z,100535.11
2019-04-16T08:03:07.838Z,100535.62
2019-04-16T08:05:41.180Z,100531.65
2019-04-16T08:08:10.972Z,100527.42
2019-04-16T08:10:41.779Z,100528.20
2019-04-16T08:13:16.591Z,100533.26
2019-04-16T08:15:48.489Z,100543.35
2019-04-16T08:18:19.128Z,100542.02
2019-04-16T08:21:01.134Z,100534.97
2019-04-16T08:23:26.515Z,100536.69
2019-04-16T08:26:03.229Z,100538.29
2019-04-16T08:28:31.405Z,100536.75
2019-04-16T08:31:03.179Z,100536.95
2019-04-16T08:33:35.686Z,100536.41
2019-04-16T08:36:07.063Z,100532.09
2019-04-16T08:38:38.291Z,100530.73
2019-04-16T08:41:12.421Z,100521.23
2019-04-16T08:43:42.810Z,100521.23
2019-04-16T08:46:14.882Z,100525.86
2019-04-16T08:48:49.934Z,100518.82
2019-04-16T08:51:30.183Z,100520.63
2019-04-16T08:53:55.812Z,100526.11
2019-04-16T08:56:27.029Z,100518.63
2019-04-16T08:59:01.545Z,100518.63
2019-04-16T09:01:35.029Z,100519.53
2019-04-16T09:04:06.345Z,100513.81
2019-04-16T09:06:37.511Z,100515.39
2019-04-16T09:09:24.437Z,100515.39
2019-04-16T09:11:55.056Z,100519.87
2019-04-16T09:14:27.673Z,100517.20
2019-04-16T09:17:00.210Z,100518.61
2019-04-16T09:19:31.338Z,100542.13
2019-04-16T09:22:02.510Z,100535.42
2019-04-16T09:24:41.682Z,100550.95
2019-04-16T09:27:28.669Z,100553.61
2019-04-16T09:30:17.154Z,100550.19
2019-04-16T09:32:49.711Z,100556.91
2019-04-16T09:35:32.637Z,100551.60
2019-04-16T09:38:13.107Z,100552.31
2019-04-16T09:41:11.287Z,100565.77
2019-04-16T09:43:53.633Z,100557.89
2019-04-16T09:46:49.622Z,100557.89
2019-04-16T09:49:04.738Z,100558.03
2019-04-16T09:51:51.119Z,100558.03
2019-04-16T09:54:44.570Z,100559.25
2019-04-16T09:57:24.076Z,100570.18
2019-04-16T10:00:04.497Z,100564.31
2019-04-16T10:02:37.746Z,100567.58
2019-04-16T10:05:10.603Z,100569.30
2019-04-16T10:07:44.005Z,100571.09
2019-04-16T10:10:16.290Z,100571.09
2019-04-16T10:12:50.970Z,100585.73
2019-04-16T10:15:25.599Z,100578.89
2019-04-16T10:17:58.610Z,100585.64
2019-04-16T10:20:31.477Z,100583.64
2019-04-16T10:23:12.736Z,100593.06
2019-04-16T10:25:47.630Z,100596.94
2019-04-16T10:28:26.295Z,100600.09
2019-04-16T10:31:00.958Z,100599.33
2019-04-16T10:33:32.915Z,100605.05
2019-04-16T10:36:10.212Z,100601.89
2019-04-16T10:41:38.358Z,100600.20
2019-04-16T10:44:11.702Z,100599.34
2019-04-16T10:46:47.873Z,100606.92
2019-04-16T10:49:37.787Z,100603.20
2019-04-16T10:52:18.207Z,100601.67
2019-04-16T10:54:55.997Z,100602.20
2019-04-16T10:57:47.556Z,100598.14
2019-04-16T11:00:43.092Z,100601.81
2019-04-16T11:03:21.075Z,100596.21
2019-04-16T11:05:56.858Z,100610.22
2019-04-16T11:08:25.971Z,100616.56
2019-04-16T11:10:58.302Z,100612.69
2019-04-16T11:13:32.440Z,100617.67
2019-04-16T11:16:07.890Z,100612.89
2019-04-16T11:18:38.837Z,100613.08
2019-04-16T11:21:10.063Z,100610.63
2019-04-16T11:23:40.868Z,100603.55
2019-04-16T11:26:12.152Z,100607.91
2019-04-16T11:28:44.406Z,100604.94
2019-04-16T11:31:17.146Z,100605.94
2019-04-16T11:33:48.013Z,100607.44
2019-04-16T11:36:21.004Z,100608.33
2019-04-16T11:38:53.866Z,100617.61
2019-04-16T11:41:24.929Z,100612.95
2019-04-16T11:43:55.991Z,100617.33
2019-04-16T11:46:27.168Z,100617.31
2019-04-16T11:48:58.880Z,100619.81
2019-04-16T11:51:30.468Z,100616.42
2019-04-16T11:54:01.547Z,100618.22
2019-04-16T11:56:32.539Z,100618.22
2019-04-16T11:59:10.232Z,100619.92
2019-04-16T12:01:50.186Z,100608.93
2019-04-16T12:04:46.956Z,100608.93
2019-04-16T12:07:25.206Z,100610.79
2019-04-16T12:09:58.480Z,100610.79
2019-04-16T12:12:40.068Z,100624.84
2019-04-16T12:15:15.250Z,100619.02
2019-04-16T12:18:00.078Z,100631.19
2019-04-16T12:20:47.799Z,100631.67
2019-04-16T12:23:27.083Z,100630.05
2019-04-16T12:26:10.412Z,100639.93
2019-04-16T12:29:00.802Z,100636.23
2019-04-16T12:31:33.678Z,100635.08
2019-04-16T12:34:15.969Z,100632.78
2019-04-16T12:36:51.776Z,100639.05
2019-04-16T12:39:28.313Z,100632.33
2019-04-16T12:42:07.417Z,100631.10
2019-04-16T12:45:03.890Z,100629.66
2019-04-16T12:47:41.378Z,100631.61
2019-04-16T12:50:23.995Z,100636.13
2019-04-16T12:52:58.295Z,100632.70
2019-04-16T12:55:34.119Z,100636.06
2019-04-16T12:58:13.135Z,100637.52
2019-04-16T13:01:04.496Z,100633.95
2019-04-16T13:03:38.075Z,100634.88
2019-04-16T13:06:10.796Z,100632.80
2019-04-16T13:08:53.636Z,100640.03
2019-04-16T13:11:58.686Z,100634.38
2019-04-16T13:14:37.634Z,100634.30
2019-04-16T13:17:26.400Z,100636.42
2019-04-16T13:20:14.657Z,100630.37
2019-04-16T13:22:59.029Z,100635.84
2019-04-16T13:25:43.636Z,100638.74
2019-04-16T13:28:14.452Z,100640.41
2019-04-16T13:30:45.819Z,100644.98
2019-04-16T13:33:16.611Z,100644.94
2019-04-16T13:35:56.508Z,100633.77
2019-04-16T13:38:40.417Z,100643.88
2019-04-16T13:41:10.640Z,100649.95
2019-04-16T13:43:42.781Z,100649.95
2019-04-16T13:46:15.341Z,100646.35
2019-04-16T13:48:52.446Z,100647.12
2019-04-16T13:51:31.729Z,100642.11
2019-04-16T13:54:17.253Z,100645.75
2019-04-16T13:56:51.584Z,100643.83
2019-04-16T13:59:33.384Z,100646.02
2019-04-16T14:02:06.888Z,100641.73
2019-04-16T14:04:37.652Z,100647.06
2019-04-16T14:07:08.523Z,100642.05
2019-04-16T14:09:39.598Z,100649.18
2019-04-16T14:12:12.853Z,100654.91
2019-04-16T14:14:46.720Z,100656.05
2019-04-16T14:17:18.616Z,100657.48
2019-04-16T14:19:54.080Z,100660.37
2019-04-16T14:22:24.613Z,100661.25
2019-04-16T14:24:55.194Z,100662.05
2019-04-16T14:27:25.695Z,100657.28
2019-04-16T14:29:59.140Z,100657.44
2019-04-16T14:32:28.797Z,100664.06
2019-04-16T14:35:00.994Z,100664.46
2019-04-16T14:37:31.694Z,100666.08
2019-04-16T14:40:07.142Z,100664.02
2019-04-16T14:42:37.892Z,100662.17
2019-04-16T14:45:13.434Z,100658.38
2019-04-16T14:47:44.232Z,100664.11
2019-04-16T14:50:15.062Z,100670.00
2019-04-16T14:52:45.949Z,100667.97
2019-04-16T14:55:20.254Z,100669.12
2019-04-16T14:58:11.923Z,100665.98
2019-04-16T15:00:53.532Z,100668.64
2019-04-16T15:03:43.462Z,100664.72
2019-04-16T15:06:19.643Z,100672.04
2019-04-16T15:09:08.562Z,100664.37
2019-04-16T15:11:49.936Z,100672.33
2019-04-16T15:14:35.992Z,100663.55
2019-04-16T15:17:11.973Z,100667.31
2019-04-16T15:19:42.557Z,100666.42
2019-04-16T15:22:24.254Z,100665.13
2019-04-16T15:25:14.432Z,100666.33
2019-04-16T15:27:49.470Z,100672.23
2019-04-16T15:30:28.369Z,100670.55
2019-04-16T15:33:12.317Z,100665.70
2019-04-16T15:35:46.818Z,100666.33
2019-04-16T15:38:20.896Z,100669.79
2019-04-16T15:40:53.934Z,100675.02
2019-04-16T15:43:42.346Z,100668.61
2019-04-16T15:46:26.192Z,100670.00
2019-04-16T15:48:54.222Z,100671.66
2019-04-16T15:51:44.472Z,100676.92
2019-04-16T15:54:34.797Z,100680.78
2019-04-16T15:57:23.074Z,100685.58
2019-04-16T15:59:55.478Z,100680.85
2019-04-16T16:02:30.490Z,100682.75
2019-04-16T16:05:08.795Z,100681.20
2019-04-16T16:07:40.878Z,100691.19
2019-04-16T16:10:14.139Z,100689.25
2019-04-16T16:12:44.802Z,100690.02
2019-04-16T16:15:15.336Z,100697.59
2019-04-16T16:17:45.790Z,100696.22
2019-04-16T16:20:17.043Z,100708.88
2019-04-16T16:22:47.530Z,100700.21
2019-04-16T16:25:18.060Z,100713.55
2019-04-16T16:27:48.539Z,100710.82
2019-04-16T16:30:19.074Z,100715.34
2019-04-16T16:32:49.567Z,100722.20
2019-04-16T16:35:20.119Z,100729.66
2019-04-16T16:37:50.612Z,100725.48
2019-04-16T16:40:21.178Z,100730.94
2019-04-16T16:42:52.590Z,100730.94
2019-04-16T16:45:24.774Z,100725.22
2019-04-16T16:47:55.247Z,100728.92
2019-04-16T16:50:25.836Z,100741.14
2019-04-16T16:53:03.956Z,100738.56
2019-04-16T16:55:36.261Z,100747.24
2019-04-16T16:58:08.631Z,100754.38
2019-04-16T17:00:50.029Z,100752.91
2019-04-16T17:03:22.201Z,100756.65
2019-04-16T17:05:52.849Z,100754.52
2019-04-16T17:08:23.366Z,100757.84
2019-04-16T17:10:54.077Z,100758.80
2019-04-16T17:13:24.598Z,100760.97
2019-04-16T17:15:55.152Z,100760.88
2019-04-16T17:18:25.664Z,100758.63
2019-04-16T17:20:56.296Z,100758.78
2019-04-16T17:23:26.864Z,100761.14
2019-04-16T17:25:58.646Z,100772.80
2019-04-16T17:28:29.259Z,100773.13
2019-04-16T17:30:59.798Z,100766.85
2019-04-16T17:33:30.284Z,100775.73
2019-04-16T17:36:00.843Z,100773.34
2019-04-16T17:38:33.891Z,100778.52
2019-04-16T17:41:05.521Z,100781.08
2019-04-16T17:43:38.514Z,100784.68
2019-04-16T17:46:19.960Z,100788.11
2019-04-16T17:48:58.179Z,100788.72
2019-04-16T17:51:30.324Z,100793.91
2019-04-16T17:54:05.524Z,100792.09
2019-04-16T17:56:55.516Z,100792.17
2019-04-16T17:59:33.350Z,100799.94
2019-04-16T18:02:14.351Z,100803.66
2019-04-16T18:04:55.635Z,100799.45
2019-04-16T18:07:33.560Z,100800.77
2019-04-16T18:10:26.586Z,100803.31
2019-04-16T18:13:00.483Z,100803.88
2019-04-16T18:15:42.561Z,100806.26
2019-04-16T18:18:16.887Z,100800.05
2019-04-16T18:20:58.548Z,100796.55
2019-04-16T18:23:27.673Z,100799.92
2019-04-16T18:26:15.058Z,100795.90
2019-04-16T18:28:56.179Z,100791.20
2019-04-16T18:31:34.035Z,100796.70
2019-04-16T18:34:12.198Z,100797.95
2019-04-16T18:36:47.171Z,100794.50
2019-04-16T18:39:24.978Z,100795.62
2019-04-16T18:41:56.992Z,100794.50
2019-04-16T18:44:46.168Z,100786.49
2019-04-16T18:47:24.327Z,100792.73
2019-04-16T18:49:56.554Z,100787.50
2019-04-16T18:52:27.010Z,100791.06
2019-04-16T18:54:57.508Z,100783.99
2019-04-16T18:57:27.920Z,100788.00
2019-04-16T18:59:58.447Z,100790.49
2019-04-16T19:02:30.473Z,100791.23
2019-04-16T19:05:00.976Z,100793.45
2019-04-16T19:07:31.451Z,100794.18
2019-04-16T19:10:01.944Z,100792.52
2019-04-16T19:12:32.405Z,100784.03
2019-04-16T19:15:03.280Z,100787.38
2019-04-16T19:17:33.871Z,100786.85
2019-04-16T19:20:05.373Z,100790.11
2019-04-16T19:22:35.912Z,100790.11
2019-04-16T19:25:09.205Z,100791.78
2019-04-16T19:27:38.955Z,100790.61
2019-04-16T19:30:09.567Z,100787.19
2019-04-16T19:32:40.028Z,100787.18
2019-04-16T19:35:14.381Z,100793.37
2019-04-16T19:37:42.716Z,100791.58
2019-04-16T19:40:15.587Z,100797.22
2019-04-16T19:42:45.483Z,100791.88
2019-04-16T19:45:17.007Z,100794.80
2019-04-16T19:47:47.593Z,100789.16
2019-04-16T19:50:18.049Z,100785.52
2019-04-16T19:52:48.489Z,100781.86
2019-04-16T19:55:18.997Z,100784.58
2019-04-16T19:57:49.449Z,100783.52
2019-04-16T20:00:22.965Z,100784.25
2019-04-16T20:02:52.148Z,100782.69
2019-04-16T20:05:22.615Z,100789.06
2019-04-16T20:07:53.182Z,100791.34
2019-04-16T20:10:23.749Z,100797.22
2019-04-16T20:12:57.427Z,100792.41
2019-04-16T20:15:26.363Z,100794.71
2019-04-16T20:17:57.127Z,100793.14
2019-04-16T20:20:27.650Z,100793.44
2019-04-16T20:22:59.657Z,100791.46
2019-04-16T20:25:30.201Z,100797.02
2019-04-16T20:28:00.678Z,100799.20
2019-04-16T20:30:31.132Z,100800.44
2019-04-16T20:33:01.633Z,100793.35
2019-04-16T20:35:32.088Z,100793.77
2019-04-16T20:38:04.332Z,100786.97
2019-04-16T20:40:34.841Z,100794.17
2019-04-16T20:43:05.290Z,100790.59
2019-04-16T20:45:36.629Z,100791.67
2019-04-16T20:48:09.068Z,100794.92
2019-04-16T20:50:39.332Z,100798.14
2019-04-16T20:53:09.754Z,100796.48
2019-04-16T20:55:40.238Z,100788.53
2019-04-16T20:58:10.637Z,100790.59
2019-04-16T21:03:23.724Z,100789.89
2019-04-16T21:05:59.225Z,100791.87
2019-04-16T21:08:26.193Z,100782.66
2019-04-16T21:10:58.918Z,100781.83
2019-04-16T21:13:28.867Z,100781.29
2019-04-16T21:16:01.328Z,100778.78
2019-04-16T21:18:31.463Z,100777.75
2019-04-16T21:21:01.848Z,100781.53
2019-04-16T21:23:34.694Z,100781.00
2019-04-16T21:26:04.437Z,100777.42
2019-04-16T21:28:42.256Z,100781.91
2019-04-16T21:31:17.066Z,100780.26
2019-04-16T21:33:52.298Z,100778.28
2019-04-16T21:36:37.004Z,100780.80
2019-04-16T21:39:17.217Z,100776.19
2019-04-16T21:41:44.441Z,100780.17
2019-04-16T21:44:14.863Z,100776.92
2019-04-16T21:46:46.196Z,100776.00
2019-04-16T21:49:16.775Z,100770.35
2019-04-16T21:52:05.571Z,100764.17
2019-04-16T21:54:38.469Z,100774.55
2019-04-16T21:57:13.129Z,100771.82
2019-04-16T21:59:41.225Z,100782.17
2019-04-16T22:02:13.957Z,100780.88
2019-04-16T22:04:45.476Z,100783.06
2019-04-16T22:07:16.538Z,100783.84
2019-04-16T22:09:47.018Z,100780.67
2019-04-16T22:12:17.455Z,100781.20
2019-04-16T22:14:50.934Z,100777.66
2019-04-16T22:17:20.069Z,100780.91
2019-04-16T22:19:54.165Z,100783.27
2019-04-16T22:22:22.615Z,100783.59
2019-04-16T22:24:54.918Z,100775.65
2019-04-16T22:27:25.227Z,100773.46
2019-04-16T22:29:55.920Z,100773.13
2019-04-16T22:32:26.991Z,100774.37
2019-04-16T22:34:58.873Z,100770.73
2019-04-16T22:37:29.400Z,100775.56
2019-04-16T22:40:01.450Z,100770.42
2019-04-16T22:42:33.462Z,100766.14
2019-04-16T22:45:19.217Z,100762.06
2019-04-16T22:47:52.168Z,100763.63
2019-04-16T22:50:22.698Z,100765.19
2019-04-16T22:52:53.123Z,100761.73
2019-04-16T22:55:24.926Z,100755.80
2019-04-16T22:57:55.694Z,100762.18
2019-04-16T23:00:30.761Z,100757.28
2019-04-16T23:03:01.149Z,100761.44
2019-04-16T23:05:32.020Z,100763.03
2019-04-16T23:08:02.877Z,100767.32
2019-04-16T23:10:33.392Z,100763.45
2019-04-16T23:13:03.833Z,100759.02
2019-04-16T23:15:34.325Z,100758.39
2019-04-16T23:18:04.751Z,100759.63
2019-04-16T23:20:36.982Z,100769.92
2019-04-16T23:23:07.639Z,100762.86
2019-04-16T23:25:38.157Z,100766.30
2019-04-16T23:28:10.635Z,100768.93
2019-04-16T23:30:41.152Z,100765.02
2019-04-16T23:33:11.595Z,100765.31
2019-04-16T23:35:44.434Z,100766.59
2019-04-16T23:38:14.291Z,100760.83
2019-04-16T23:40:44.807Z,100763.01
2019-04-16T23:43:25.883Z,100760.52
2019-04-16T23:46:14.344Z,100754.27
2019-04-16T23:48:47.894Z,100754.20
2019-04-16T23:51:20.629Z,100751.36
2019-04-16T23:53:52.612Z,100755.64
2019-04-16T23:56:33.714Z,100753.95
2019-04-16T23:59:17.997Z,100750.73
